Nestor — V2FB3 — position and weather

sailwx.info

Track history (hours):
 
Tides and Currents Weather Stations Pressure Air Temp Water Temp Dewpoint Dewpoint Depression Visibility Wind Speed Wind Dir Waves Ship Positions

Nestor

Last reported at 2017-Mar-22 00:22 UTC. Time now 2017-Mar-23 02:17 UTC.
Position N 57°59' E 008°42'.

Length 88 m; draft 5.4 m.

Type: Cargo ship. MMSI: 305620000.

Date/timePositionNaut miles runAvg speedWind from/ knotsBaromVisibWave heightAir tempDewpointWater temp
2017-Mar-22 00:22N 57°59' E 008°42'6 6.8
2017-Mar-21 23:33N 58°03' E 008°49'7 6.8
2017-Mar-21 22:32N 58°08' E 008°58'29 7.4
2017-Mar-21 18:33N 58°31' E 009°34'7 7.3
2017-Mar-21 17:33N 58°38' E 009°39'8 7.8
2017-Mar-21 16:33N 58°45' E 009°43'7 7.1
2017-Mar-21 15:33N 58°52' E 009°46'7 6.8
2017-Mar-21 14:33N 58°59' E 009°47'8 8.1
2017-Mar-21 13:33N 59°05' E 009°38'2 1.9
2017-Mar-21 12:33N 59°07' E 009°37'0 0.0
2017-Mar-21 11:33N 59°07' E 009°37'0 0.0
2017-Mar-21 10:33N 59°07' E 009°37'0 0.0
2017-Mar-21 09:30N 59°07' E 009°37'0 0.0
2017-Mar-21 08:33N 59°07' E 009°37'0 0.0
2017-Mar-21 07:34N 59°07' E 009°37'0 0.0
2017-Mar-21 06:34N 59°07' E 009°37'0 0.0
2017-Mar-21 05:34N 59°07' E 009°37'0 0.0
2017-Mar-21 04:30N 59°07' E 009°37'0 0.0
2017-Mar-21 03:34N 59°07' E 009°37'0 0.0
2017-Mar-21 02:34N 59°07' E 009°37'0 0.0
2017-Mar-21 01:31N 59°07' E 009°37'0 0.0
2017-Mar-21 00:34N 59°07' E 009°37'0 0.0
2017-Mar-20 23:31N 59°07' E 009°37'0 0.0
2017-Mar-20 22:34N 59°07' E 009°37'0 0.0
2017-Mar-20 21:34N 59°07' E 009°37'0 0.0
2017-Mar-20 20:34N 59°07' E 009°37'4 4.3
2017-Mar-20 19:33N 59°03' E 009°40'8 8.5
2017-Mar-20 18:33N 58°56' E 009°49'1111.0
2017-Mar-20 17:32N 58°45' E 009°46'245 8.2
2017-Mar-19 11:33N 55°11' E 006°09'7 6.6
2017-Mar-19 10:31N 55°04' E 006°04'116 7.6
2017-Mar-18 19:13N 53°20' E 004°39'16 9.3
2017-Mar-18 17:33N 53°06' E 004°27'9 8.8
2017-Mar-18 16:33N 52°58' E 004°21'12 8.1
2017-Mar-18 15:06N 52°47' E 004°12'6 8.0
2017-Mar-18 14:25N 52°43' E 004°06'91 8.3
2017-Mar-18 03:26N 51°44' E 002°13'9 9.7
2017-Mar-18 02:33N 51°38' E 002°03'9 9.6
2017-Mar-18 01:34N 51°31' E 001°53'8 8.4
2017-Mar-18 00:34N 51°29' E 001°40'9 8.8
2017-Mar-17 23:34N 51°28' E 001°26'1010.2
2017-Mar-17 22:33N 51°29' E 001°09'1110.7
2017-Mar-17 21:30N 51°29' E 000°52'1212.6
2017-Mar-17 20:34N 51°30' E 000°32'10 9.5
2017-Mar-17 19:33N 51°28' E 000°18'5 4.6
2017-Mar-17 18:32N 51°29' E 000°10'0 0.0
2017-Mar-17 17:32N 51°29' E 000°10'0 0.0
2017-Mar-17 16:32N 51°29' E 000°10'0 0.0
2017-Mar-17 15:32N 51°29' E 000°10'0 0.0
2017-Mar-17 14:29N 51°29' E 000°10'0 0.0
2017-Mar-17 13:32N 51°29' E 000°10'0 0.0
2017-Mar-17 12:32N 51°29' E 000°10'0 0.0
2017-Mar-17 11:32N 51°29' E 000°10'0 0.0
2017-Mar-17 10:32N 51°29' E 000°10'0 0.0
2017-Mar-17 09:32N 51°29' E 000°10'0 0.0
2017-Mar-17 08:32N 51°29' E 000°10'0 0.0
2017-Mar-17 07:32N 51°29' E 000°10'0 0.0
2017-Mar-17 06:32N 51°29' E 000°10'0 0.0
2017-Mar-17 05:29N 51°29' E 000°10'0 0.0
2017-Mar-17 04:32N 51°29' E 000°10'0 0.0
2017-Mar-17 03:32N 51°29' E 000°10'0 0.0
2017-Mar-17 02:32N 51°29' E 000°10'0 0.0
2017-Mar-17 01:32N 51°29' E 000°10'0 0.0
2017-Mar-17 00:33N 51°29' E 000°10'3 3.1
2017-Mar-16 23:34N 51°28' E 000°15'8 7.6
2017-Mar-16 22:33N 51°29' E 000°27'8 8.0
2017-Mar-16 21:32N 51°30' E 000°40'14 6.7
2017-Mar-16 19:27N 51°30' E 001°03'6 6.6
2017-Mar-16 18:33N 51°29' E 001°12'12 5.9
2017-Mar-16 16:33N 51°29' E 001°31'8 7.7
2017-Mar-16 15:33N 51°21' E 001°35'1111.5
2017-Mar-16 14:34N 51°10' E 001°39'10 9.7
2017-Mar-16 13:34N 51°01' E 001°33'70 8.6
2017-Mar-16 05:24N 50°19' E 000°05'6 7.4
2017-Mar-16 04:33N 50°17' W 000°04'7 7.4
2017-Mar-16 03:33N 50°16' W 000°16'16 7.8
2017-Mar-16 01:27N 50°12' W 000°41'9 9.6
2017-Mar-16 00:31N 50°10' W 000°54'1111.2
2017-Mar-15 23:33N 50°07' W 001°10'1212.1
2017-Mar-15 22:34N 50°03' W 001°28'1312.8
2017-Mar-15 21:34N 50°00' W 001°48'1612.5
2017-Mar-15 20:18N 49°56' W 002°11'810.7
2017-Mar-15 19:33N 49°54' W 002°23'12 9.6
2017-Mar-15 18:20N 49°50' W 002°40'7 8.6
2017-Mar-15 17:33N 49°49' W 002°51'8 8.1
2017-Mar-15 16:33N 49°48' W 003°03'7 7.5
2017-Mar-15 15:34N 49°48' W 003°14'7 7.1
2017-Mar-15 14:34N 49°50' W 003°25'7 7.2
2017-Mar-15 13:33N 49°51' W 003°36'7 7.4
2017-Mar-15 12:33N 49°50' W 003°48'10 7.9
2017-Mar-15 11:19N 49°51' W 004°03'45 9.4
2017-Mar-15 06:31N 49°53' W 005°13'1010.1
2017-Mar-15 05:32N 49°54' W 005°28'9 9.3
2017-Mar-15 04:33N 49°54' W 005°42'16 6.3
2017-Mar-15 02:03N 50°04' W 006°01'4 7.9
2017-Mar-15 01:29N 50°09' W 006°01'8 8.5
2017-Mar-15 00:30N 50°17' W 006°03'31 9.3
2017-Mar-14 21:10N 50°48' W 006°01'205 8.5
2017-Mar-13 21:11N 54°11' W 005°17'6 9.3
2017-Mar-13 20:33N 54°16' W 005°15'10 9.6
2017-Mar-13 19:33N 54°26' W 005°14'1010.3
2017-Mar-13 18:33N 54°35' W 005°23'9 9.2
2017-Mar-13 17:33N 54°43' W 005°32'10 9.7
2017-Mar-13 16:33N 54°41' W 005°48'5 1.1
2017-Mar-13 12:14N 54°37' W 005°54'0 0.0
2017-Mar-13 11:32N 54°37' W 005°54'0 0.0
2017-Mar-13 06:26N 54°37' W 005°54'0 0.0
2017-Mar-13 05:32N 54°37' W 005°54'0 0.0
2017-Mar-13 04:20N 54°37' W 005°54'0 0.0
2017-Mar-13 03:32N 54°37' W 005°54'0 0.0
2017-Mar-13 02:32N 54°37' W 005°54'0 0.0
2017-Mar-13 01:26N 54°37' W 005°54'0 0.0
2017-Mar-13 00:26N 54°37' W 005°54'0 0.0
2017-Mar-12 23:32N 54°37' W 005°54'0 0.0
2017-Mar-12 22:26N 54°37' W 005°54'0 0.0
2017-Mar-12 21:32N 54°37' W 005°54'0 0.0
2017-Mar-12 20:32N 54°37' W 005°54'0 0.0
2017-Mar-12 19:20N 54°37' W 005°54'0 0.0
2017-Mar-12 18:32N 54°37' W 005°54'0 0.0
2017-Mar-12 17:26N 54°37' W 005°54'0 0.0
2017-Mar-12 16:26N 54°37' W 005°54'0 0.0
2017-Mar-12 15:32N 54°37' W 005°54'0 0.0
2017-Mar-12 14:32N 54°37' W 005°54'0 0.0
2017-Mar-12 13:20N 54°37' W 005°54'0 0.0
2017-Mar-12 12:32N 54°37' W 005°54'0 0.0
2017-Mar-12 11:20N 54°37' W 005°54'0 0.0
2017-Mar-12 09:08N 54°37' W 005°54'0 0.0
2017-Mar-12 07:20N 54°37' W 005°54'0 0.0
2017-Mar-12 05:20N 54°37' W 005°54'0 0.0
2017-Mar-12 04:20N 54°37' W 005°54'0 0.0
2017-Mar-12 01:20N 54°37' W 005°54'  
Track history (hours):
 
Tides and Currents Weather Stations Pressure Air Temp Water Temp Dewpoint Dewpoint Depression Visibility Wind Speed Wind Dir Waves Ship Positions

Nestor

Last reported at 2017-Mar-22 00:22 UTC. Time now 2017-Mar-23 02:17 UTC.
Position N 57°59' E 008°42'.

Length 88 m; draft 5.4 m.

Type: Cargo ship. MMSI: 305620000.

Date/timePositionNaut miles runAvg speedWind from/ knotsBaromVisibWave heightAir tempDewpointWater temp
2017-Mar-22 00:22N 57°59' E 008°42'6 6.8
2017-Mar-21 23:33N 58°03' E 008°49'7 6.8
2017-Mar-21 22:32N 58°08' E 008°58'29 7.4
2017-Mar-21 18:33N 58°31' E 009°34'7 7.3
2017-Mar-21 17:33N 58°38' E 009°39'8 7.8
2017-Mar-21 16:33N 58°45' E 009°43'7 7.1
2017-Mar-21 15:33N 58°52' E 009°46'7 6.8
2017-Mar-21 14:33N 58°59' E 009°47'8 8.1
2017-Mar-21 13:33N 59°05' E 009°38'2 1.9
2017-Mar-21 12:33N 59°07' E 009°37'0 0.0
2017-Mar-21 11:33N 59°07' E 009°37'0 0.0
2017-Mar-21 10:33N 59°07' E 009°37'0 0.0
2017-Mar-21 09:30N 59°07' E 009°37'0 0.0
2017-Mar-21 08:33N 59°07' E 009°37'0 0.0
2017-Mar-21 07:34N 59°07' E 009°37'0 0.0
2017-Mar-21 06:34N 59°07' E 009°37'0 0.0
2017-Mar-21 05:34N 59°07' E 009°37'0 0.0
2017-Mar-21 04:30N 59°07' E 009°37'0 0.0
2017-Mar-21 03:34N 59°07' E 009°37'0 0.0
2017-Mar-21 02:34N 59°07' E 009°37'0 0.0
2017-Mar-21 01:31N 59°07' E 009°37'0 0.0
2017-Mar-21 00:34N 59°07' E 009°37'0 0.0
2017-Mar-20 23:31N 59°07' E 009°37'0 0.0
2017-Mar-20 22:34N 59°07' E 009°37'0 0.0
2017-Mar-20 21:34N 59°07' E 009°37'0 0.0
2017-Mar-20 20:34N 59°07' E 009°37'4 4.3
2017-Mar-20 19:33N 59°03' E 009°40'8 8.5
2017-Mar-20 18:33N 58°56' E 009°49'1111.0
2017-Mar-20 17:32N 58°45' E 009°46'245 8.2
2017-Mar-19 11:33N 55°11' E 006°09'7 6.6
2017-Mar-19 10:31N 55°04' E 006°04'116 7.6
2017-Mar-18 19:13N 53°20' E 004°39'16 9.3
2017-Mar-18 17:33N 53°06' E 004°27'9 8.8
2017-Mar-18 16:33N 52°58' E 004°21'12 8.1
2017-Mar-18 15:06N 52°47' E 004°12'6 8.0
2017-Mar-18 14:25N 52°43' E 004°06'91 8.3
2017-Mar-18 03:26N 51°44' E 002°13'9 9.7
2017-Mar-18 02:33N 51°38' E 002°03'9 9.6
2017-Mar-18 01:34N 51°31' E 001°53'8 8.4
2017-Mar-18 00:34N 51°29' E 001°40'9 8.8
2017-Mar-17 23:34N 51°28' E 001°26'1010.2
2017-Mar-17 22:33N 51°29' E 001°09'1110.7
2017-Mar-17 21:30N 51°29' E 000°52'1212.6
2017-Mar-17 20:34N 51°30' E 000°32'10 9.5
2017-Mar-17 19:33N 51°28' E 000°18'5 4.6
2017-Mar-17 18:32N 51°29' E 000°10'0 0.0
2017-Mar-17 17:32N 51°29' E 000°10'0 0.0
2017-Mar-17 16:32N 51°29' E 000°10'0 0.0
2017-Mar-17 15:32N 51°29' E 000°10'0 0.0
2017-Mar-17 14:29N 51°29' E 000°10'0 0.0
2017-Mar-17 13:32N 51°29' E 000°10'0 0.0
2017-Mar-17 12:32N 51°29' E 000°10'0 0.0
2017-Mar-17 11:32N 51°29' E 000°10'0 0.0
2017-Mar-17 10:32N 51°29' E 000°10'0 0.0
2017-Mar-17 09:32N 51°29' E 000°10'0 0.0
2017-Mar-17 08:32N 51°29' E 000°10'0 0.0
2017-Mar-17 07:32N 51°29' E 000°10'0 0.0
2017-Mar-17 06:32N 51°29' E 000°10'0 0.0
2017-Mar-17 05:29N 51°29' E 000°10'0 0.0
2017-Mar-17 04:32N 51°29' E 000°10'0 0.0
2017-Mar-17 03:32N 51°29' E 000°10'0 0.0
2017-Mar-17 02:32N 51°29' E 000°10'0 0.0
2017-Mar-17 01:32N 51°29' E 000°10'0 0.0
2017-Mar-17 00:33N 51°29' E 000°10'3 3.1
2017-Mar-16 23:34N 51°28' E 000°15'8 7.6
2017-Mar-16 22:33N 51°29' E 000°27'8 8.0
2017-Mar-16 21:32N 51°30' E 000°40'14 6.7
2017-Mar-16 19:27N 51°30' E 001°03'6 6.6
2017-Mar-16 18:33N 51°29' E 001°12'12 5.9
2017-Mar-16 16:33N 51°29' E 001°31'8 7.7
2017-Mar-16 15:33N 51°21' E 001°35'1111.5
2017-Mar-16 14:34N 51°10' E 001°39'10 9.7
2017-Mar-16 13:34N 51°01' E 001°33'70 8.6
2017-Mar-16 05:24N 50°19' E 000°05'6 7.4
2017-Mar-16 04:33N 50°17' W 000°04'7 7.4
2017-Mar-16 03:33N 50°16' W 000°16'16 7.8
2017-Mar-16 01:27N 50°12' W 000°41'9 9.6
2017-Mar-16 00:31N 50°10' W 000°54'1111.2
2017-Mar-15 23:33N 50°07' W 001°10'1212.1
2017-Mar-15 22:34N 50°03' W 001°28'1312.8
2017-Mar-15 21:34N 50°00' W 001°48'1612.5
2017-Mar-15 20:18N 49°56' W 002°11'810.7
2017-Mar-15 19:33N 49°54' W 002°23'12 9.6
2017-Mar-15 18:20N 49°50' W 002°40'7 8.6
2017-Mar-15 17:33N 49°49' W 002°51'8 8.1
2017-Mar-15 16:33N 49°48' W 003°03'7 7.5
2017-Mar-15 15:34N 49°48' W 003°14'7 7.1
2017-Mar-15 14:34N 49°50' W 003°25'7 7.2
2017-Mar-15 13:33N 49°51' W 003°36'7 7.4
2017-Mar-15 12:33N 49°50' W 003°48'10 7.9
2017-Mar-15 11:19N 49°51' W 004°03'45 9.4
2017-Mar-15 06:31N 49°53' W 005°13'1010.1
2017-Mar-15 05:32N 49°54' W 005°28'9 9.3
2017-Mar-15 04:33N 49°54' W 005°42'16 6.3
2017-Mar-15 02:03N 50°04' W 006°01'4 7.9
2017-Mar-15 01:29N 50°09' W 006°01'8 8.5
2017-Mar-15 00:30N 50°17' W 006°03'31 9.3
2017-Mar-14 21:10N 50°48' W 006°01'205 8.5
2017-Mar-13 21:11N 54°11' W 005°17'6 9.3
2017-Mar-13 20:33N 54°16' W 005°15'10 9.6
2017-Mar-13 19:33N 54°26' W 005°14'1010.3
2017-Mar-13 18:33N 54°35' W 005°23'9 9.2
2017-Mar-13 17:33N 54°43' W 005°32'10 9.7
2017-Mar-13 16:33N 54°41' W 005°48'5 1.1
2017-Mar-13 12:14N 54°37' W 005°54'0 0.0
2017-Mar-13 11:32N 54°37' W 005°54'0 0.0
2017-Mar-13 06:26N 54°37' W 005°54'0 0.0
2017-Mar-13 05:32N 54°37' W 005°54'0 0.0
2017-Mar-13 04:20N 54°37' W 005°54'0 0.0
2017-Mar-13 03:32N 54°37' W 005°54'0 0.0
2017-Mar-13 02:32N 54°37' W 005°54'0 0.0
2017-Mar-13 01:26N 54°37' W 005°54'0 0.0
2017-Mar-13 00:26N 54°37' W 005°54'0 0.0
2017-Mar-12 23:32N 54°37' W 005°54'0 0.0
2017-Mar-12 22:26N 54°37' W 005°54'0 0.0
2017-Mar-12 21:32N 54°37' W 005°54'0 0.0
2017-Mar-12 20:32N 54°37' W 005°54'0 0.0
2017-Mar-12 19:20N 54°37' W 005°54'0 0.0
2017-Mar-12 18:32N 54°37' W 005°54'0 0.0
2017-Mar-12 17:26N 54°37' W 005°54'0 0.0
2017-Mar-12 16:26N 54°37' W 005°54'0 0.0
2017-Mar-12 15:32N 54°37' W 005°54'0 0.0
2017-Mar-12 14:32N 54°37' W 005°54'0 0.0
2017-Mar-12 13:20N 54°37' W 005°54'0 0.0
2017-Mar-12 12:32N 54°37' W 005°54'0 0.0
2017-Mar-12 11:20N 54°37' W 005°54'0 0.0
2017-Mar-12 09:08N 54°37' W 005°54'0 0.0
2017-Mar-12 07:20N 54°37' W 005°54'0 0.0
2017-Mar-12 05:20N 54°37' W 005°54'0 0.0
2017-Mar-12 04:20N 54°37' W 005°54'0 0.0
2017-Mar-12 01:20N 54°37' W 005°54'  

Dump ship's entire track history